EDHI/XFW METAR and TAF weather

Enter ICAO airport designator
Station Type Date Time Source
EDHI METAR 2018/07/21 13:20 UTC NOAA

EDHI 211320Z 11005KT 050V190 CAVOK 26/10 Q1012


Station Type Date Time Source
EDHI Decoded METAR 2018/07/21 13:20 UTC NOAA

Hamburg-Finkenwerder, Germany (EDHI) 53-32N 009-50E 13M
Jul 21, 2018 - 09:20 AM EDT / 2018.07.21 1320 UTC
Wind: from the ESE (110 degrees) at 6 MPH (5 KT) (direction variable):0
Visibility: greater than 7 mile(s):0
Temperature: 78 F (26 C)
Dew Point: 50 F (10 C)
Relative Humidity: 36%
Pressure (altimeter): 29.88 in. Hg (1012 hPa)
ob: EDHI 211320Z 11005KT 050V190 CAVOK 26/10 Q1012
cycle: 13

Station Type Date Time Source
EDHI TAF 2010/02/22 14:20 UTC NOAA

METAR EDHI 221420Z 17005KT 9999 BKN030 05/02 Q0989


Example: see airport list